createdAt,value
2022-11-05T00:02:30.141Z,28.27
2022-11-05T00:07:08.248Z,28.85
2022-11-05T00:11:41.581Z,30.23
2022-11-05T00:16:08.882Z,25.98
2022-11-05T00:20:27.338Z,30.38
2022-11-05T00:24:49.652Z,35.22
2022-11-05T00:28:54.492Z,32.35
2022-11-05T00:33:08.534Z,36.60
2022-11-05T00:37:19.843Z,44.17
2022-11-05T00:41:37.539Z,38.05
2022-11-05T00:46:35.983Z,35.90
2022-11-05T00:50:53.097Z,38.92
2022-11-05T00:54:59.997Z,36.03
2022-11-05T00:59:11.595Z,28.27
2022-11-05T01:03:32.822Z,33.40
2022-11-05T01:07:47.489Z,31.67
2022-11-05T01:11:55.411Z,28.88
2022-11-05T01:16:25.127Z,34.22
2022-11-05T01:20:32.817Z,26.20
2022-11-05T01:24:44.639Z,29.35
2022-11-05T01:29:04.839Z,24.85
2022-11-05T01:33:10.078Z,33.72
2022-11-05T01:37:13.600Z,37.63
2022-11-05T01:41:18.286Z,31.67
2022-11-05T01:49:39.731Z,26.60
2022-11-05T01:53:51.657Z,26.48
2022-11-05T02:02:43.100Z,24.70
2022-11-05T02:07:15.406Z,25.50
2022-11-05T02:11:29.868Z,29.30
2022-11-05T02:16:04.712Z,27.65
2022-11-05T02:20:34.435Z,26.98
2022-11-05T02:25:22.323Z,29.92
2022-11-05T02:30:14.677Z,26.02
2022-11-05T02:34:42.449Z,27.17
2022-11-05T02:39:03.439Z,26.50
2022-11-05T02:43:19.782Z,28.60
2022-11-05T02:47:49.812Z,31.17
2022-11-05T02:52:05.466Z,31.77
2022-11-05T02:56:24.858Z,27.05
2022-11-05T03:01:01.063Z,41.47
2022-11-05T03:05:09.588Z,29.92
2022-11-05T03:09:51.195Z,29.95
2022-11-05T03:14:07.909Z,32.15
2022-11-05T03:18:27.460Z,30.27
2022-11-05T03:22:53.037Z,24.20
2022-11-05T03:28:04.430Z,25.00
2022-11-05T03:32:55.597Z,32.70
2022-11-05T03:37:29.059Z,28.55
2022-11-05T03:41:56.222Z,34.45
2022-11-05T03:46:18.675Z,27.50
2022-11-05T03:50:41.845Z,31.25
2022-11-05T03:55:00.819Z,23.15
2022-11-05T03:59:19.685Z,30.17
2022-11-05T04:03:28.517Z,26.80
2022-11-05T04:07:57.941Z,41.90
2022-11-05T04:12:40.007Z,29.40
2022-11-05T04:17:15.363Z,28.65
2022-11-05T04:21:54.444Z,34.72
2022-11-05T04:26:16.284Z,39.05
2022-11-05T04:30:36.116Z,40.47
2022-11-05T04:35:01.704Z,46.63
2022-11-05T04:39:40.033Z,37.75
2022-11-05T04:44:02.220Z,39.85
2022-11-05T04:48:27.729Z,35.40
2022-11-05T04:52:54.367Z,45.15
2022-11-05T04:57:11.268Z,34.00
2022-11-05T05:01:32.141Z,33.20
2022-11-05T05:06:02.410Z,39.17
2022-11-05T05:10:25.931Z,31.58
2022-11-05T05:14:38.833Z,39.85
2022-11-05T05:19:00.662Z,38.05
2022-11-05T05:23:29.392Z,41.00
2022-11-05T05:28:02.681Z,27.20
2022-11-05T05:32:56.498Z,26.17
2022-11-05T05:37:08.725Z,41.80
2022-11-05T05:41:48.476Z,49.83
2022-11-05T05:51:55.698Z,54.90
2022-11-05T05:57:14.954Z,54.22
2022-11-05T06:02:16.553Z,53.75
2022-11-05T06:07:02.640Z,54.55
2022-11-05T06:11:37.724Z,61.03
2022-11-05T06:15:58.238Z,81.18
2022-11-05T06:20:13.651Z,59.70
2022-11-05T06:24:26.100Z,67.85
2022-11-05T06:28:38.296Z,72.18
2022-11-05T06:33:07.756Z,38.55
2022-11-05T06:37:17.282Z,40.45
2022-11-05T06:41:27.292Z,33.65
2022-11-05T06:45:55.187Z,34.75
2022-11-05T06:50:09.935Z,47.03
2022-11-05T06:54:27.160Z,32.20
2022-11-05T06:58:50.940Z,33.85
2022-11-05T07:09:18.728Z,59.42
2022-11-05T07:13:30.833Z,51.50
2022-11-05T07:17:35.470Z,40.45
2022-11-05T07:21:51.467Z,45.33
2022-11-05T07:25:51.846Z,38.78
2022-11-05T07:29:56.956Z,44.17
2022-11-05T07:34:06.402Z,33.10
2022-11-05T07:38:13.047Z,51.08
2022-11-05T07:42:25.571Z,44.60
2022-11-05T07:46:33.983Z,27.73
2022-11-05T07:55:24.104Z,40.00
2022-11-05T08:03:44.449Z,41.38
2022-11-05T08:08:35.417Z,33.80
2022-11-05T08:13:22.776Z,29.55
2022-11-05T08:23:30.911Z,31.17
2022-11-05T08:27:49.742Z,32.90
2022-11-05T08:32:53.595Z,31.85
2022-11-05T08:37:23.944Z,29.17
2022-11-05T08:41:45.364Z,28.05
2022-11-05T08:46:02.808Z,27.52
2022-11-05T08:51:16.972Z,29.20
2022-11-05T08:55:44.474Z,32.72
2022-11-05T09:05:39.363Z,28.52
2022-11-05T09:10:12.857Z,36.17
2022-11-05T09:14:53.563Z,31.02
2022-11-05T09:19:31.386Z,33.28
2022-11-05T09:28:37.696Z,42.60
2022-11-05T09:33:10.225Z,32.75
2022-11-05T09:38:01.219Z,30.58
2022-11-05T09:42:32.828Z,36.70
2022-11-05T09:47:12.840Z,30.42
2022-11-05T09:51:37.327Z,33.90
2022-11-05T09:55:50.463Z,30.60
2022-11-05T10:00:03.309Z,39.42
2022-11-05T10:04:33.433Z,34.20
2022-11-05T10:09:16.054Z,33.67
2022-11-05T10:13:28.062Z,30.15
2022-11-05T10:17:55.659Z,48.63
2022-11-05T10:22:16.661Z,34.78
2022-11-05T10:26:33.641Z,30.88
2022-11-05T10:30:46.788Z,36.53
2022-11-05T10:34:58.685Z,34.72
2022-11-05T10:39:18.786Z,27.13
2022-11-05T10:43:33.189Z,34.88
2022-11-05T10:48:01.168Z,35.65
2022-11-05T10:52:28.994Z,33.38
2022-11-05T10:56:38.396Z,36.42
2022-11-05T11:00:49.221Z,34.92
2022-11-05T11:04:58.927Z,38.00
2022-11-05T11:18:26.053Z,36.22
2022-11-05T11:22:42.265Z,36.63
2022-11-05T11:26:50.350Z,35.28
2022-11-05T11:30:58.702Z,32.38
2022-11-05T11:35:04.156Z,37.90
2022-11-05T11:39:36.544Z,32.47
2022-11-05T11:44:10.157Z,37.22
2022-11-05T11:48:58.511Z,33.70
2022-11-05T11:53:50.123Z,34.63
2022-11-05T11:57:58.975Z,36.42
2022-11-05T12:02:58.851Z,34.55
2022-11-05T12:07:46.969Z,39.90
2022-11-05T12:12:02.641Z,38.17
2022-11-05T12:21:09.765Z,32.95
2022-11-05T12:25:30.755Z,37.40
2022-11-05T12:30:09.857Z,43.50
2022-11-05T12:34:47.768Z,28.40
2022-11-05T12:39:46.477Z,29.08
2022-11-05T12:44:28.318Z,25.20
2022-11-05T12:49:16.124Z,28.95
2022-11-05T12:53:54.142Z,38.35
2022-11-05T12:58:18.885Z,32.05
2022-11-05T13:02:29.443Z,30.08
2022-11-05T13:06:53.410Z,32.55
2022-11-05T13:10:58.088Z,37.03
2022-11-05T13:15:05.353Z,26.33
2022-11-05T13:19:18.898Z,34.67
2022-11-05T13:23:36.653Z,29.80
2022-11-05T13:27:55.148Z,35.72
2022-11-05T13:32:08.115Z,26.45
2022-11-05T13:36:48.194Z,32.60
2022-11-05T13:41:42.185Z,29.55
2022-11-05T13:46:49.590Z,35.30
2022-11-05T13:52:24.029Z,29.63
2022-11-05T13:57:25.700Z,33.10
2022-11-05T14:02:16.691Z,27.88
2022-11-05T14:25:07.555Z,36.72
2022-11-05T14:41:55.905Z,29.90
2022-11-05T15:34:31.030Z,32.17
2022-11-05T15:39:08.518Z,35.28
2022-11-05T15:43:35.539Z,38.65
2022-11-05T15:48:35.206Z,28.55
2022-11-05T15:53:44.070Z,30.92
2022-11-05T15:58:05.638Z,39.08
2022-11-05T16:02:36.107Z,34.08
2022-11-05T16:07:26.200Z,32.58
2022-11-05T16:11:52.327Z,30.80
2022-11-05T16:16:13.752Z,36.00
2022-11-05T16:20:42.956Z,32.20
2022-11-05T16:25:04.984Z,28.63
2022-11-05T16:29:23.178Z,28.85
2022-11-05T16:33:53.206Z,33.13
2022-11-05T16:38:11.309Z,37.78
2022-11-05T16:42:44.831Z,29.45
2022-11-05T16:47:06.698Z,35.70
2022-11-05T16:51:17.065Z,39.20
2022-11-05T16:55:50.116Z,34.53
2022-11-05T17:00:19.259Z,35.50
2022-11-05T17:04:39.290Z,36.85
2022-11-05T17:08:40.605Z,36.50
2022-11-05T17:12:46.817Z,37.92
2022-11-05T17:17:00.832Z,39.80
2022-11-05T17:21:23.000Z,37.92
2022-11-05T17:26:01.447Z,39.35
2022-11-05T17:30:31.203Z,44.13
2022-11-05T17:34:41.092Z,46.28
2022-11-05T17:39:03.158Z,33.30
2022-11-05T17:43:52.797Z,47.40
2022-11-05T17:48:33.555Z,41.67
2022-11-05T17:52:53.405Z,44.65
2022-11-05T17:57:20.538Z,49.75
2022-11-05T18:01:31.300Z,37.50
2022-11-05T18:05:44.137Z,42.67
2022-11-05T18:10:02.854Z,46.47
2022-11-05T18:14:08.026Z,43.83
2022-11-05T18:18:35.332Z,37.10
2022-11-05T18:22:46.481Z,42.63
2022-11-05T18:26:59.757Z,42.33
2022-11-05T18:31:21.613Z,49.90
2022-11-05T18:39:34.146Z,42.70
2022-11-05T18:43:41.381Z,45.75
2022-11-05T18:48:10.660Z,96.03
2022-11-05T18:52:38.151Z,46.95
2022-11-05T18:56:59.933Z,49.17
2022-11-05T19:01:29.022Z,66.57
2022-11-05T19:05:56.071Z,66.00
2022-11-05T19:10:13.195Z,47.17
2022-11-05T19:14:38.080Z,49.75
2022-11-05T19:18:55.027Z,49.22
2022-11-05T19:23:10.824Z,47.25
2022-11-05T19:27:32.126Z,48.22
2022-11-05T19:32:21.053Z,44.45
2022-11-05T19:36:46.350Z,53.50
2022-11-05T19:41:30.197Z,56.03
2022-11-05T19:45:55.721Z,61.13
2022-11-05T19:55:06.757Z,56.05
2022-11-05T19:59:54.658Z,55.53
2022-11-05T20:04:24.211Z,57.13
2022-11-05T20:08:47.853Z,54.55
2022-11-05T20:13:18.588Z,61.83
2022-11-05T20:17:45.600Z,64.63
2022-11-05T20:21:50.997Z,70.20
2022-11-05T20:25:56.815Z,74.95
2022-11-05T20:30:02.372Z,63.50
2022-11-05T20:34:09.834Z,64.60
2022-11-05T20:38:13.192Z,66.00
2022-11-05T20:42:18.421Z,64.97
2022-11-05T20:46:47.849Z,64.10
2022-11-05T20:50:56.939Z,62.13
2022-11-05T20:54:58.439Z,65.93
2022-11-05T20:59:23.666Z,68.40
2022-11-05T21:04:02.500Z,63.45
2022-11-05T21:08:37.238Z,72.28
2022-11-05T21:13:02.560Z,59.45
2022-11-05T21:17:18.050Z,65.22
2022-11-05T21:21:26.790Z,66.22
2022-11-05T21:25:36.341Z,70.38
2022-11-05T21:29:41.177Z,56.58
2022-11-05T21:34:00.364Z,58.38
2022-11-05T21:38:29.472Z,56.75
2022-11-05T21:42:45.675Z,57.83
2022-11-05T21:46:54.347Z,62.50
2022-11-05T21:51:33.083Z,63.17
2022-11-05T21:56:04.763Z,58.30
2022-11-05T22:00:32.168Z,58.35
2022-11-05T22:04:54.006Z,57.55
2022-11-05T22:09:20.989Z,54.33
2022-11-05T22:13:32.626Z,53.60
2022-11-05T22:18:17.463Z,51.73
2022-11-05T22:22:36.683Z,49.67
2022-11-05T22:27:07.582Z,46.63
2022-11-05T22:31:41.201Z,51.70
2022-11-05T22:36:03.092Z,55.72
2022-11-05T22:40:12.996Z,52.63
2022-11-05T22:48:18.679Z,53.97
2022-11-05T22:52:22.596Z,53.53
2022-11-05T22:56:29.102Z,44.60
2022-11-05T23:00:39.241Z,52.30
2022-11-05T23:05:03.029Z,52.33
2022-11-05T23:09:23.527Z,53.15
2022-11-05T23:13:28.988Z,52.50
2022-11-05T23:17:51.850Z,53.75
2022-11-05T23:22:11.428Z,44.47
2022-11-05T23:26:31.730Z,46.67
2022-11-05T23:31:05.653Z,43.55
2022-11-05T23:35:30.053Z,53.05
2022-11-05T23:39:39.644Z,47.53
2022-11-05T23:43:58.677Z,50.42
2022-11-05T23:48:19.902Z,44.58
2022-11-05T23:52:35.807Z,52.30
2022-11-05T23:56:43.770Z,52.33
